createdAt,value
2019-05-10T00:00:31.667Z,8.63
2019-05-10T00:03:17.521Z,7.40
2019-05-10T00:06:03.685Z,10.60
2019-05-10T00:08:45.945Z,5.00
2019-05-10T00:11:20.189Z,6.53
2019-05-10T00:14:07.242Z,6.67
2019-05-10T00:16:35.510Z,6.27
2019-05-10T00:19:03.677Z,7.03
2019-05-10T00:21:31.806Z,7.00
2019-05-10T00:23:59.932Z,7.27
2019-05-10T00:26:28.117Z,7.73
2019-05-10T00:28:56.224Z,6.63
2019-05-10T00:31:24.356Z,5.80
2019-05-10T00:33:52.455Z,7.60
2019-05-10T00:36:20.677Z,6.77
2019-05-10T00:38:48.775Z,8.67
2019-05-10T00:41:17.012Z,6.70
2019-05-10T00:43:45.213Z,5.23
2019-05-10T00:46:13.431Z,4.63
2019-05-10T00:48:41.602Z,11.10
2019-05-10T00:51:09.987Z,7.00
2019-05-10T00:53:38.112Z,8.43
2019-05-10T00:56:06.220Z,9.67
2019-05-10T00:58:34.347Z,9.40
2019-05-10T01:01:02.453Z,9.27
2019-05-10T01:03:30.655Z,7.03
2019-05-10T01:05:58.772Z,4.70
2019-05-10T01:08:26.909Z,9.40
2019-05-10T01:10:55.088Z,7.63
2019-05-10T01:13:23.232Z,11.30
2019-05-10T01:25:36.315Z,5.37
2019-05-10T01:28:04.837Z,9.13
2019-05-10T01:30:33.080Z,7.83
2019-05-10T01:33:01.211Z,7.93
2019-05-10T01:35:29.317Z,8.43
2019-05-10T01:37:57.420Z,7.90
2019-05-10T01:40:25.557Z,5.67
2019-05-10T01:42:53.678Z,6.43
2019-05-10T01:45:21.935Z,6.23
2019-05-10T01:47:50.056Z,9.70
2019-05-10T01:50:18.177Z,9.37
2019-05-10T01:52:46.618Z,8.87
2019-05-10T01:55:14.825Z,7.30
2019-05-10T01:57:42.933Z,8.97
2019-05-10T02:00:11.345Z,5.70
2019-05-10T02:02:39.441Z,5.93
2019-05-10T02:05:08.442Z,7.17
2019-05-10T02:07:36.576Z,6.07
2019-05-10T02:10:05.823Z,8.90
2019-05-10T02:12:33.930Z,7.50
2019-05-10T02:15:02.061Z,6.23
2019-05-10T02:17:30.169Z,6.50
2019-05-10T02:19:58.293Z,7.53
2019-05-10T02:22:26.408Z,7.67
2019-05-10T02:24:54.546Z,8.63
2019-05-10T02:27:22.662Z,7.83
2019-05-10T02:29:50.789Z,7.00
2019-05-10T02:32:18.899Z,7.90
2019-05-10T02:34:47.052Z,7.37
2019-05-10T02:37:15.564Z,11.93
2019-05-10T02:39:43.687Z,10.93
2019-05-10T02:42:11.792Z,10.67
2019-05-10T02:44:40.094Z,6.07
2019-05-10T02:47:08.308Z,8.60
2019-05-10T02:49:36.456Z,8.43
2019-05-10T02:52:04.683Z,5.90
2019-05-10T02:54:32.934Z,10.57
2019-05-10T02:57:02.333Z,9.03
2019-05-10T02:59:30.569Z,9.40
2019-05-10T03:02:00.241Z,11.33
2019-05-10T03:04:28.466Z,8.90
2019-05-10T03:07:03.276Z,9.27
2019-05-10T03:09:31.982Z,12.23
2019-05-10T03:12:01.637Z,12.60
2019-05-10T03:14:31.361Z,7.87
2019-05-10T03:17:01.060Z,16.13
2019-05-10T03:19:30.638Z,13.33
2019-05-10T03:22:00.304Z,9.57
2019-05-10T03:24:28.415Z,9.73
2019-05-10T03:26:56.553Z,15.77
2019-05-10T03:29:24.729Z,15.13
2019-05-10T03:31:52.862Z,10.77
2019-05-10T03:34:21.050Z,10.30
2019-05-10T03:36:49.526Z,9.97
2019-05-10T03:39:17.640Z,11.13
2019-05-10T03:41:46.028Z,12.83
2019-05-10T03:44:14.137Z,9.33
2019-05-10T03:46:42.277Z,11.93
2019-05-10T03:49:10.462Z,15.23
2019-05-10T03:51:38.596Z,13.90
2019-05-10T03:54:07.047Z,10.30
2019-05-10T03:56:35.177Z,14.20
2019-05-10T03:59:03.358Z,10.13
2019-05-10T04:01:31.487Z,11.40
2019-05-10T04:03:59.673Z,13.80
2019-05-10T04:06:27.801Z,10.27
2019-05-10T04:08:56.230Z,15.77
2019-05-10T04:11:24.414Z,14.97
2019-05-10T04:13:53.026Z,17.60
2019-05-10T04:16:21.357Z,11.47
2019-05-10T04:18:49.471Z,11.83
2019-05-10T04:21:17.970Z,15.47
2019-05-10T04:23:46.081Z,11.93
2019-05-10T04:26:14.213Z,13.93
2019-05-10T04:28:42.316Z,12.97
2019-05-10T04:31:10.753Z,9.77
2019-05-10T04:33:38.864Z,12.50
2019-05-10T04:36:12.019Z,14.00
2019-05-10T04:38:37.022Z,10.13
2019-05-10T04:41:05.147Z,11.37
2019-05-10T04:43:33.257Z,14.20
2019-05-10T04:46:02.428Z,9.77
2019-05-10T04:48:30.629Z,14.27
2019-05-10T04:50:58.955Z,14.23
2019-05-10T04:53:27.090Z,11.60
2019-05-10T04:55:55.314Z,13.83
2019-05-10T04:58:23.823Z,11.40
2019-05-10T05:00:51.942Z,13.13
2019-05-10T05:03:20.149Z,11.27
2019-05-10T05:05:48.256Z,11.53
2019-05-10T05:08:16.456Z,12.30
2019-05-10T05:10:44.576Z,15.80
2019-05-10T05:13:12.708Z,12.23
2019-05-10T05:15:40.888Z,13.30
2019-05-10T05:18:09.086Z,14.57
2019-05-10T05:20:37.206Z,15.77
2019-05-10T05:23:05.344Z,14.97
2019-05-10T05:25:35.294Z,16.17
2019-05-10T05:28:08.115Z,15.40
2019-05-10T05:30:34.142Z,15.60
2019-05-10T05:33:02.280Z,17.90
2019-05-10T05:35:30.398Z,14.07
2019-05-10T05:37:58.882Z,16.23
2019-05-10T05:40:26.997Z,16.80
2019-05-10T05:42:55.218Z,18.67
2019-05-10T05:45:28.361Z,17.13
2019-05-10T05:47:53.260Z,18.37
2019-05-10T05:50:21.396Z,24.17
2019-05-10T05:52:49.687Z,22.27
2019-05-10T05:55:18.132Z,15.30
2019-05-10T05:57:46.256Z,18.17
2019-05-10T06:00:14.465Z,20.03
2019-05-10T06:02:44.947Z,16.17
2019-05-10T06:05:12.920Z,18.37
2019-05-10T06:07:41.032Z,16.20
2019-05-10T06:10:17.415Z,13.70
2019-05-10T06:12:39.185Z,16.97
2019-05-10T06:15:07.398Z,22.63
2019-05-10T06:17:35.529Z,21.60
2019-05-10T06:20:05.996Z,18.40
2019-05-10T06:22:38.327Z,17.37
2019-05-10T06:25:06.521Z,16.10
2019-05-10T06:27:35.416Z,15.17
2019-05-10T06:30:05.562Z,16.57
2019-05-10T06:32:33.696Z,18.90
2019-05-10T06:35:02.111Z,19.90
2019-05-10T06:37:31.489Z,23.80
2019-05-10T06:39:59.814Z,18.93
2019-05-10T06:42:28.737Z,16.60
2019-05-10T06:44:58.070Z,17.63
2019-05-10T06:47:26.191Z,17.97
2019-05-10T06:49:54.376Z,21.77
2019-05-10T06:52:27.682Z,16.67
2019-05-10T06:54:52.355Z,16.27
2019-05-10T06:57:20.459Z,17.17
2019-05-10T06:59:48.597Z,18.93
2019-05-10T07:02:20.051Z,15.40
2019-05-10T07:04:46.669Z,22.70
2019-05-10T07:07:20.295Z,19.73
2019-05-10T07:10:04.328Z,22.90
2019-05-10T07:12:17.908Z,20.30
2019-05-10T07:14:46.049Z,21.57
2019-05-10T07:17:14.699Z,21.10
2019-05-10T07:19:53.251Z,24.67
2019-05-10T07:22:12.669Z,20.57
2019-05-10T07:24:40.808Z,24.90
2019-05-10T07:27:08.948Z,21.53
2019-05-10T07:29:45.851Z,20.37
2019-05-10T07:32:07.274Z,23.30
2019-05-10T07:34:35.442Z,22.77
2019-05-10T07:37:03.765Z,19.90
2019-05-10T07:39:31.876Z,20.80
2019-05-10T07:42:05.888Z,24.17
2019-05-10T07:44:30.121Z,21.73
2019-05-10T07:46:58.676Z,19.23
2019-05-10T07:49:30.096Z,18.60
2019-05-10T07:52:02.214Z,17.67
2019-05-10T07:54:26.632Z,16.07
2019-05-10T07:56:54.762Z,20.63
2019-05-10T07:59:28.006Z,18.93
2019-05-10T08:01:52.815Z,20.30
2019-05-10T08:04:28.908Z,14.23
2019-05-10T08:06:52.125Z,16.77
2019-05-10T08:09:20.507Z,17.53
2019-05-10T08:11:53.827Z,18.57
2019-05-10T08:14:19.264Z,19.53
2019-05-10T08:16:49.871Z,16.33
2019-05-10T08:19:17.451Z,16.70
2019-05-10T08:21:48.883Z,16.80
2019-05-10T08:24:16.726Z,13.87
2019-05-10T08:26:45.028Z,21.10
2019-05-10T08:29:16.766Z,17.87
2019-05-10T08:31:50.474Z,20.07
2019-05-10T08:34:13.172Z,23.47
2019-05-10T08:36:43.438Z,21.93
2019-05-10T08:39:13.902Z,23.50
2019-05-10T08:41:42.896Z,21.77
2019-05-10T08:44:19.151Z,23.63
2019-05-10T08:46:43.727Z,25.40
2019-05-10T08:49:12.904Z,23.13
2019-05-10T08:51:48.006Z,25.17
2019-05-10T08:54:12.164Z,24.63
2019-05-10T08:56:44.073Z,25.33
2019-05-10T08:59:15.858Z,28.30
2019-05-10T09:01:46.941Z,30.33
2019-05-10T09:04:11.727Z,21.73
2019-05-10T09:06:42.013Z,21.10
2019-05-10T09:09:12.382Z,21.50
2019-05-10T09:11:44.050Z,26.67
2019-05-10T09:14:12.325Z,21.80
2019-05-10T09:16:44.752Z,42.73
2019-05-10T09:19:12.311Z,17.30
2019-05-10T09:21:40.976Z,17.53
2019-05-10T09:24:09.672Z,15.20
2019-05-10T09:26:37.793Z,13.20
2019-05-10T09:29:06.000Z,15.03
2019-05-10T09:31:34.187Z,15.83
2019-05-10T09:34:02.639Z,17.33
2019-05-10T09:36:35.468Z,15.53
2019-05-10T09:39:03.236Z,14.93
2019-05-10T09:41:33.840Z,16.30
2019-05-10T09:44:02.854Z,15.90
2019-05-10T09:46:32.432Z,13.43
2019-05-10T09:49:06.767Z,10.60
2019-05-10T09:51:33.123Z,11.30
2019-05-10T09:54:00.789Z,15.03
2019-05-10T09:56:32.848Z,12.43
2019-05-10T09:58:58.804Z,11.93
2019-05-10T10:01:28.190Z,18.40
2019-05-10T10:03:58.353Z,14.30
2019-05-10T10:06:29.515Z,14.13
2019-05-10T10:08:57.722Z,11.23
2019-05-10T10:11:27.812Z,10.13
2019-05-10T10:13:58.930Z,10.40
2019-05-10T10:16:28.064Z,8.70
2019-05-10T10:18:55.896Z,8.33
2019-05-10T10:21:30.588Z,4.87
2019-05-10T10:23:53.960Z,5.77
2019-05-10T10:26:22.582Z,5.67
2019-05-10T10:28:55.164Z,4.40
2019-05-10T10:31:29.110Z,4.30
2019-05-10T10:33:58.179Z,2.80
2019-05-10T10:36:20.356Z,2.80
2019-05-10T10:38:49.650Z,3.10
2019-05-10T10:41:25.799Z,4.47
2019-05-10T10:43:48.562Z,4.37
2019-05-10T10:46:19.752Z,4.43
2019-05-10T10:48:49.136Z,3.57
2019-05-10T10:51:18.203Z,3.33
2019-05-10T10:53:47.037Z,3.00
2019-05-10T10:56:17.653Z,2.87
2019-05-10T10:58:49.682Z,2.67
2019-05-10T11:01:21.567Z,2.37
2019-05-10T11:03:48.544Z,11.93
2019-05-10T11:06:15.483Z,6.10
2019-05-10T11:08:43.680Z,6.87
2019-05-10T11:11:11.825Z,3.77
2019-05-10T11:13:44.864Z,3.23
2019-05-10T11:16:15.473Z,5.70
2019-05-10T11:18:41.797Z,10.20
2019-05-10T11:21:11.302Z,15.70
2019-05-10T11:23:41.960Z,7.90
2019-05-10T11:26:10.857Z,6.87
2019-05-10T11:28:43.939Z,8.33
2019-05-10T11:31:11.300Z,7.70
2019-05-10T11:33:41.539Z,6.57
2019-05-10T11:36:11.358Z,7.63
2019-05-10T11:38:38.781Z,7.07
2019-05-10T11:41:11.650Z,5.83
2019-05-10T11:43:36.808Z,8.40
2019-05-10T11:46:05.269Z,7.37
2019-05-10T11:48:37.416Z,8.60
2019-05-10T11:51:05.701Z,7.93
2019-05-10T11:53:33.181Z,5.67
2019-05-10T11:56:02.256Z,6.43
2019-05-10T11:58:31.201Z,5.50
2019-05-10T12:01:02.957Z,9.10
2019-05-10T12:03:31.661Z,6.10
2019-05-10T12:06:05.295Z,7.77
2019-05-10T12:08:28.981Z,6.80
2019-05-10T12:11:10.170Z,5.37
2019-05-10T12:13:26.953Z,6.43
2019-05-10T12:15:55.065Z,8.00
2019-05-10T12:18:26.889Z,5.60
2019-05-10T12:21:03.915Z,5.57
2019-05-10T12:23:29.971Z,5.97
2019-05-10T12:27:09.324Z,6.43
2019-05-10T12:28:28.597Z,6.03
2019-05-10T12:30:52.825Z,5.23
2019-05-10T12:33:24.921Z,4.97
2019-05-10T12:35:51.027Z,6.00
2019-05-10T12:38:23.578Z,7.50
2019-05-10T12:40:51.184Z,6.63
2019-05-10T12:43:21.126Z,5.17
2019-05-10T12:45:48.890Z,5.37
2019-05-10T12:48:17.336Z,7.70
2019-05-10T12:50:45.449Z,5.20
2019-05-10T12:53:18.227Z,5.43
2019-05-10T12:55:43.421Z,4.47
2019-05-10T12:58:11.533Z,4.27
2019-05-10T13:00:39.674Z,5.10
2019-05-10T13:03:12.715Z,5.87
2019-05-10T13:05:51.458Z,6.13
2019-05-10T13:08:07.947Z,5.80
2019-05-10T13:10:37.062Z,3.20
2019-05-10T13:13:05.900Z,6.33
2019-05-10T13:15:34.032Z,3.97
2019-05-10T13:18:02.204Z,3.70
2019-05-10T13:20:36.691Z,4.97
2019-05-10T13:23:02.427Z,3.43
2019-05-10T13:25:30.555Z,2.77
2019-05-10T13:27:58.673Z,4.03
2019-05-10T13:30:28.136Z,2.13
2019-05-10T13:32:58.597Z,4.23
2019-05-10T13:35:26.488Z,3.87
2019-05-10T13:37:56.764Z,2.60
2019-05-10T13:40:24.490Z,5.30
2019-05-10T13:42:52.591Z,2.93
2019-05-10T13:45:20.721Z,3.70
2019-05-10T13:47:48.836Z,2.50
2019-05-10T13:50:17.018Z,2.90
2019-05-10T13:52:45.214Z,5.07
2019-05-10T13:55:13.478Z,3.43
2019-05-10T13:57:41.614Z,3.17
2019-05-10T14:00:10.004Z,3.53
2019-05-10T14:02:38.203Z,3.83
2019-05-10T14:05:06.390Z,4.30
2019-05-10T14:07:34.549Z,4.33
2019-05-10T14:10:03.033Z,3.27
2019-05-10T14:12:31.167Z,3.77
2019-05-10T14:15:02.635Z,2.93
2019-05-10T14:17:29.460Z,3.60
2019-05-10T14:19:57.585Z,4.43
2019-05-10T14:22:25.786Z,5.13
2019-05-10T14:24:58.889Z,4.93
2019-05-10T14:27:23.768Z,4.47
2019-05-10T14:29:52.003Z,3.80
2019-05-10T14:32:20.131Z,4.50
2019-05-10T14:34:48.331Z,4.13
2019-05-10T14:37:19.841Z,2.57
2019-05-10T14:39:46.351Z,3.93
2019-05-10T14:42:14.521Z,4.07
2019-05-10T14:44:42.625Z,3.27
2019-05-10T14:47:11.240Z,3.20
2019-05-10T14:49:42.124Z,4.33
2019-05-10T14:52:09.353Z,5.40
2019-05-10T14:54:43.849Z,3.10
2019-05-10T14:57:07.593Z,3.27
2019-05-10T14:59:35.749Z,5.33
2019-05-10T15:02:04.042Z,3.23
2019-05-10T15:04:47.622Z,3.07
2019-05-10T15:07:02.068Z,3.57
2019-05-10T15:09:30.196Z,4.80
2019-05-10T15:11:58.409Z,5.60
2019-05-10T15:14:26.549Z,3.83
2019-05-10T15:16:54.741Z,10.73
2019-05-10T15:19:27.151Z,7.00
2019-05-10T15:21:52.902Z,6.80
2019-05-10T15:24:21.101Z,6.50
2019-05-10T15:26:49.206Z,8.10
2019-05-10T15:29:22.576Z,7.10
2019-05-10T15:31:47.317Z,7.33
2019-05-10T15:34:15.485Z,7.07
2019-05-10T15:36:43.642Z,7.57
2019-05-10T15:39:11.798Z,6.70
2019-05-10T15:41:39.965Z,5.03
2019-05-10T15:44:08.289Z,5.27
2019-05-10T15:46:41.765Z,7.10
2019-05-10T15:49:06.263Z,5.27
2019-05-10T15:51:36.587Z,6.63
2019-05-10T15:54:07.375Z,5.40
2019-05-10T15:56:35.714Z,4.43
2019-05-10T15:59:04.442Z,5.13
2019-05-10T16:01:32.582Z,5.20
2019-05-10T16:04:00.695Z,6.50
2019-05-10T16:06:32.416Z,5.57
2019-05-10T16:09:02.931Z,5.50
2019-05-10T16:11:28.519Z,6.90
2019-05-10T16:14:00.064Z,7.07
2019-05-10T16:16:30.379Z,6.47
2019-05-10T16:18:56.313Z,7.60
2019-05-10T16:21:24.424Z,10.20
2019-05-10T16:23:52.551Z,7.63
2019-05-10T16:26:22.871Z,7.33
2019-05-10T16:28:53.065Z,9.43
2019-05-10T16:31:20.637Z,7.00
2019-05-10T16:33:53.480Z,7.30
2019-05-10T16:36:23.018Z,10.00
2019-05-10T16:38:48.722Z,8.73
2019-05-10T16:41:16.925Z,9.40
2019-05-10T16:43:45.044Z,7.97
2019-05-10T16:46:13.514Z,8.37
2019-05-10T16:48:41.681Z,6.83
2019-05-10T16:51:12.361Z,7.67
2019-05-10T16:53:43.811Z,6.83
2019-05-10T16:56:13.235Z,6.83
2019-05-10T16:58:39.628Z,7.33
2019-05-10T17:01:07.803Z,5.97
2019-05-10T17:03:35.938Z,6.23
2019-05-10T17:06:05.660Z,6.90
2019-05-10T17:08:36.894Z,8.70
2019-05-10T17:11:09.623Z,6.40
2019-05-10T17:13:36.323Z,7.37
2019-05-10T17:16:03.948Z,6.00
2019-05-10T17:18:32.158Z,6.63
2019-05-10T17:21:00.272Z,5.60
2019-05-10T17:23:28.405Z,6.57
2019-05-10T17:25:56.528Z,5.57
2019-05-10T17:28:24.698Z,5.83
2019-05-10T17:30:53.109Z,7.43
2019-05-10T17:33:21.252Z,5.80
2019-05-10T17:35:49.360Z,5.67
2019-05-10T17:38:17.476Z,5.57
2019-05-10T17:40:47.929Z,7.17
2019-05-10T17:43:20.601Z,7.60
2019-05-10T17:45:46.095Z,6.87
2019-05-10T17:48:14.268Z,6.70
2019-05-10T17:50:45.424Z,7.60
2019-05-10T17:53:12.580Z,6.93
2019-05-10T17:55:40.704Z,8.50
2019-05-10T17:58:09.138Z,7.17
2019-05-10T18:00:37.302Z,6.57
2019-05-10T18:03:05.403Z,9.23
2019-05-10T18:05:33.618Z,7.20
2019-05-10T18:08:01.738Z,7.43
2019-05-10T18:10:29.939Z,7.17
2019-05-10T18:13:03.380Z,8.17
2019-05-10T18:15:32.942Z,9.00
2019-05-10T18:18:02.517Z,11.57
2019-05-10T18:20:28.029Z,7.80
2019-05-10T18:22:56.136Z,7.73
2019-05-10T18:25:24.262Z,9.70
2019-05-10T18:27:52.363Z,8.80
2019-05-10T18:30:20.560Z,9.20
2019-05-10T18:32:48.665Z,8.53
2019-05-10T18:35:17.136Z,10.93
2019-05-10T18:37:45.401Z,9.83
2019-05-10T18:40:13.708Z,23.50
2019-05-10T18:42:41.841Z,33.00
2019-05-10T18:45:10.202Z,30.47
2019-05-10T18:47:38.412Z,25.97
2019-05-10T18:50:06.708Z,17.37
2019-05-10T18:52:34.855Z,9.20
2019-05-10T18:55:03.072Z,9.73
2019-05-10T18:57:31.277Z,11.03
2019-05-10T18:59:59.393Z,10.20
2019-05-10T19:02:27.860Z,10.70
2019-05-10T19:04:55.995Z,10.63
2019-05-10T19:07:24.179Z,12.70
2019-05-10T19:09:52.327Z,12.53
2019-05-10T19:12:22.759Z,12.93
2019-05-10T19:14:50.405Z,10.63
2019-05-10T19:17:18.613Z,11.93
2019-05-10T19:19:46.722Z,10.77
2019-05-10T19:22:14.860Z,9.33
2019-05-10T19:24:43.265Z,10.33
2019-05-10T19:27:11.486Z,10.73
2019-05-10T19:29:45.755Z,10.53
2019-05-10T19:32:11.387Z,9.60
2019-05-10T19:34:39.333Z,9.23
2019-05-10T19:37:07.449Z,12.83
2019-05-10T19:39:35.579Z,11.50
2019-05-10T19:42:06.025Z,12.70
2019-05-10T19:44:34.800Z,9.60
2019-05-10T19:47:03.451Z,10.80
2019-05-10T19:49:31.576Z,9.70
2019-05-10T19:51:59.692Z,18.17
2019-05-10T19:54:27.833Z,31.47
2019-05-10T19:56:55.964Z,21.70
2019-05-10T19:59:24.159Z,12.20
2019-05-10T20:01:52.555Z,10.57
2019-05-10T20:04:20.751Z,13.43
2019-05-10T20:06:48.878Z,15.30
2019-05-10T20:09:17.338Z,11.27
2019-05-10T20:11:45.467Z,12.43
2019-05-10T20:14:13.728Z,9.90
2019-05-10T20:16:52.377Z,13.33
2019-05-10T20:19:11.835Z,9.77
2019-05-10T20:21:40.038Z,13.73
2019-05-10T20:24:08.735Z,10.00
2019-05-10T20:26:36.843Z,9.23
2019-05-10T20:29:04.974Z,10.03
2019-05-10T20:31:33.173Z,11.00
2019-05-10T20:34:01.366Z,11.37
2019-05-10T20:36:29.497Z,13.50
2019-05-10T20:39:00.790Z,9.13
2019-05-10T20:41:27.459Z,12.60
2019-05-10T20:43:55.575Z,11.70
2019-05-10T20:46:23.718Z,9.23
2019-05-10T20:48:51.823Z,9.37
2019-05-10T20:51:19.957Z,9.03
2019-05-10T20:53:48.314Z,9.87
2019-05-10T20:56:16.591Z,13.33
2019-05-10T20:58:44.688Z,9.97
2019-05-10T21:01:12.889Z,12.33
2019-05-10T21:03:41.006Z,12.50
2019-05-10T21:06:09.132Z,15.97
2019-05-10T21:08:37.244Z,11.17
2019-05-10T21:11:05.440Z,12.07
2019-05-10T21:13:33.549Z,12.30
2019-05-10T21:16:01.695Z,13.00
2019-05-10T21:18:29.892Z,15.87
2019-05-10T21:20:58.069Z,14.33
2019-05-10T21:23:26.275Z,10.77
2019-05-10T21:25:54.448Z,14.10
2019-05-10T21:28:22.985Z,16.03
2019-05-10T21:30:53.452Z,11.77
2019-05-10T21:33:21.333Z,14.77
2019-05-10T21:35:49.440Z,14.73
2019-05-10T21:38:31.975Z,16.07
2019-05-10T21:40:47.418Z,15.07
2019-05-10T21:43:15.580Z,12.07
2019-05-10T21:45:43.694Z,18.10
2019-05-10T21:48:11.837Z,14.67
2019-05-10T21:50:40.037Z,16.33
2019-05-10T21:53:08.165Z,13.07
2019-05-10T21:55:36.293Z,16.23
2019-05-10T21:58:04.434Z,15.87
2019-05-10T22:00:37.056Z,16.03
2019-05-10T22:03:05.351Z,16.20
2019-05-10T22:05:33.925Z,16.03
2019-05-10T22:08:02.106Z,14.70
2019-05-10T22:10:30.259Z,15.10
2019-05-10T22:12:58.380Z,17.83
2019-05-10T22:15:26.588Z,20.50
2019-05-10T22:17:54.704Z,17.87
2019-05-10T22:20:22.845Z,19.40
2019-05-10T22:22:51.041Z,18.37
2019-05-10T22:25:19.191Z,17.70
2019-05-10T22:27:47.312Z,17.60
2019-05-10T22:30:16.649Z,19.37
2019-05-10T22:32:44.834Z,17.23
2019-05-10T22:35:13.174Z,19.40
2019-05-10T22:37:41.444Z,23.60
2019-05-10T22:40:09.959Z,19.47
2019-05-10T22:42:38.312Z,20.20
2019-05-10T22:45:06.631Z,18.43
2019-05-10T22:47:34.740Z,19.20
2019-05-10T22:50:03.957Z,19.57
2019-05-10T22:52:32.144Z,22.07
2019-05-10T22:55:00.888Z,18.53
2019-05-10T22:57:29.189Z,16.70
2019-05-10T22:59:57.330Z,17.33
2019-05-10T23:02:25.444Z,18.83
2019-05-10T23:04:53.543Z,15.67
2019-05-10T23:07:21.682Z,17.23
2019-05-10T23:09:49.816Z,19.40
2019-05-10T23:12:17.987Z,21.50
2019-05-10T23:14:46.437Z,24.40
2019-05-10T23:17:14.581Z,22.57
2019-05-10T23:19:42.698Z,23.23
2019-05-10T23:22:10.917Z,23.87
2019-05-10T23:24:39.510Z,23.67
2019-05-10T23:27:08.178Z,22.87
2019-05-10T23:29:36.361Z,30.80
2019-05-10T23:32:04.560Z,29.80
2019-05-10T23:34:32.676Z,28.53
2019-05-10T23:37:00.824Z,29.70
2019-05-10T23:39:40.131Z,30.60
2019-05-10T23:41:58.794Z,29.40
2019-05-10T23:44:26.978Z,30.73
2019-05-10T23:46:55.112Z,30.90
2019-05-10T23:49:23.230Z,32.87
2019-05-10T23:51:51.355Z,29.87
2019-05-10T23:54:19.494Z,29.40
2019-05-10T23:56:47.617Z,34.03
2019-05-10T23:59:15.747Z,32.10
